createdAt,value
2019-03-06T00:03:13.824Z,7.07
2019-03-06T00:08:18.150Z,8.53
2019-03-06T00:13:22.359Z,6.80
2019-03-06T00:18:26.600Z,5.37
2019-03-06T00:23:31.107Z,7.23
2019-03-06T00:28:35.656Z,7.70
2019-03-06T00:33:39.831Z,7.53
2019-03-06T00:38:44.259Z,7.17
2019-03-06T00:43:48.552Z,5.57
2019-03-06T00:48:52.988Z,8.10
2019-03-06T00:53:57.175Z,7.47
2019-03-06T00:59:01.613Z,8.07
2019-03-06T01:04:06.301Z,8.90
2019-03-06T01:09:10.209Z,10.40
2019-03-06T01:14:13.886Z,11.47
2019-03-06T01:19:17.816Z,11.60
2019-03-06T01:24:21.462Z,8.53
2019-03-06T01:29:25.485Z,8.20
2019-03-06T01:34:47.040Z,9.57
2019-03-06T01:40:09.800Z,11.20
2019-03-06T01:45:13.820Z,10.10
2019-03-06T01:50:17.534Z,10.47
2019-03-06T01:55:21.556Z,12.47
2019-03-06T02:00:25.188Z,8.97
2019-03-06T02:05:29.700Z,12.70
2019-03-06T02:10:33.609Z,12.40
2019-03-06T02:15:37.614Z,9.87
2019-03-06T02:20:41.282Z,12.10
2019-03-06T02:25:45.004Z,11.23
2019-03-06T02:30:48.650Z,10.27
2019-03-06T02:35:52.365Z,11.17
2019-03-06T02:40:55.995Z,12.80
2019-03-06T02:45:59.673Z,10.67
2019-03-06T02:51:03.417Z,10.40
2019-03-06T02:56:07.227Z,11.57
2019-03-06T03:01:39.221Z,13.40
2019-03-06T03:06:46.179Z,11.07
2019-03-06T03:11:49.831Z,9.63
2019-03-06T03:16:53.639Z,10.03
2019-03-06T03:21:57.293Z,11.47
2019-03-06T03:27:01.088Z,11.33
2019-03-06T03:32:04.710Z,9.63
2019-03-06T03:37:08.635Z,11.27
2019-03-06T03:42:12.375Z,12.43
2019-03-06T03:47:16.202Z,9.83
2019-03-06T03:52:19.981Z,7.70
2019-03-06T03:57:23.799Z,8.90
2019-03-06T04:02:27.548Z,9.53
2019-03-06T04:07:31.290Z,8.10
2019-03-06T04:12:34.946Z,9.80
2019-03-06T04:17:38.578Z,9.20
2019-03-06T04:22:42.297Z,7.03
2019-03-06T04:27:46.018Z,8.63
2019-03-06T04:32:49.646Z,8.67
2019-03-06T04:37:53.281Z,9.33
2019-03-06T04:42:56.993Z,9.97
2019-03-06T04:48:00.664Z,7.80
2019-03-06T04:53:04.647Z,7.73
2019-03-06T04:58:08.327Z,11.83
2019-03-06T05:03:12.474Z,9.97
2019-03-06T05:08:16.171Z,11.93
2019-03-06T05:13:20.097Z,15.13
2019-03-06T05:18:28.792Z,12.57
2019-03-06T05:23:32.730Z,13.10
2019-03-06T05:28:36.465Z,12.63
2019-03-06T05:33:40.155Z,16.77
2019-03-06T05:38:48.788Z,12.10
2019-03-06T05:43:52.724Z,12.67
2019-03-06T05:48:56.392Z,13.13
2019-03-06T05:54:00.315Z,14.03
2019-03-06T05:59:03.974Z,16.27
2019-03-06T06:04:08.058Z,16.67
2019-03-06T06:09:11.886Z,19.20
2019-03-06T06:14:15.905Z,17.50
2019-03-06T06:19:19.713Z,17.43
2019-03-06T06:24:26.268Z,20.50
2019-03-06T06:29:30.033Z,18.03
2019-03-06T06:34:34.014Z,19.40
2019-03-06T06:39:37.686Z,19.50
2019-03-06T06:44:41.412Z,18.03
2019-03-06T06:49:45.181Z,17.73
2019-03-06T06:55:10.971Z,18.40
2019-03-06T07:00:57.200Z,18.30
2019-03-06T07:06:25.873Z,20.80
2019-03-06T07:11:36.252Z,19.57
2019-03-06T07:16:52.774Z,23.50
2019-03-06T07:22:21.608Z,18.20
2019-03-06T07:27:33.401Z,18.83
2019-03-06T07:32:52.266Z,18.27
2019-03-06T07:38:02.548Z,17.13
2019-03-06T07:43:14.231Z,18.63
2019-03-06T07:48:25.739Z,19.97
2019-03-06T07:53:54.265Z,19.50
2019-03-06T07:58:59.405Z,17.53
2019-03-06T08:04:07.081Z,20.60
2019-03-06T08:09:16.879Z,21.93
2019-03-06T08:14:40.219Z,18.30
2019-03-06T08:20:12.047Z,17.77
2019-03-06T08:25:23.335Z,18.97
2019-03-06T08:30:29.191Z,15.50
2019-03-06T08:35:33.453Z,15.13
2019-03-06T08:40:37.699Z,17.43
2019-03-06T08:50:11.706Z,13.53
2019-03-06T08:55:28.438Z,13.63
2019-03-06T09:00:54.503Z,12.87
2019-03-06T09:06:16.459Z,14.90
2019-03-06T09:11:26.844Z,13.97
2019-03-06T09:16:56.725Z,14.00
2019-03-06T09:22:26.015Z,11.00
2019-03-06T09:27:35.170Z,13.33
2019-03-06T09:33:01.424Z,10.30
2019-03-06T09:38:23.639Z,11.05
2019-03-06T09:43:49.458Z,10.35
2019-03-06T09:49:11.821Z,11.25
2019-03-06T09:54:27.349Z,8.30
2019-03-06T09:59:36.604Z,8.30
2019-03-06T10:04:46.348Z,10.15
2019-03-06T10:10:03.825Z,12.53
2019-03-06T10:15:22.172Z,9.33
2019-03-06T10:20:26.564Z,10.80
2019-03-06T10:25:31.469Z,9.05
2019-03-06T10:30:36.648Z,9.78
2019-03-06T10:35:40.920Z,10.30
2019-03-06T10:40:45.258Z,11.03
2019-03-06T10:45:49.503Z,9.90
2019-03-06T10:50:53.800Z,9.38
2019-03-06T10:55:58.205Z,9.25
2019-03-06T11:01:02.548Z,10.85
2019-03-06T11:06:07.108Z,8.43
2019-03-06T11:11:11.649Z,9.50
2019-03-06T11:16:17.889Z,8.78
2019-03-06T11:21:21.997Z,8.93
2019-03-06T11:26:26.366Z,10.18
2019-03-06T11:31:30.704Z,11.25
2019-03-06T11:36:35.250Z,8.95
2019-03-06T11:41:39.527Z,8.25
2019-03-06T11:46:43.936Z,6.37
2019-03-06T11:51:48.261Z,8.75
2019-03-06T11:56:52.523Z,7.75
2019-03-06T12:01:56.783Z,5.08
2019-03-06T12:07:00.971Z,6.67
2019-03-06T12:12:05.607Z,6.03
2019-03-06T12:17:09.778Z,5.35
2019-03-06T12:22:14.247Z,4.92
2019-03-06T12:27:18.559Z,4.47
2019-03-06T12:32:22.764Z,4.97
2019-03-06T12:37:27.011Z,3.95
2019-03-06T12:42:31.419Z,5.55
2019-03-06T12:47:35.600Z,5.42
2019-03-06T12:52:39.793Z,3.98
2019-03-06T12:57:44.041Z,3.92
2019-03-06T13:02:48.553Z,7.37
2019-03-06T13:07:53.221Z,7.25
2019-03-06T13:12:57.460Z,5.70
2019-03-06T13:18:01.811Z,4.12
2019-03-06T13:23:07.946Z,4.58
2019-03-06T13:28:12.274Z,4.22
2019-03-06T13:33:25.259Z,2.98
2019-03-06T13:38:29.515Z,4.33
2019-03-06T13:43:33.790Z,4.10
2019-03-06T13:48:40.282Z,5.33
2019-03-06T13:53:44.548Z,5.45
2019-03-06T13:58:48.872Z,5.80
2019-03-06T14:03:53.127Z,4.65
2019-03-06T14:08:57.407Z,3.45
2019-03-06T14:14:01.660Z,4.58
2019-03-06T14:19:05.913Z,7.28
2019-03-06T14:24:10.301Z,4.78
2019-03-06T14:29:14.759Z,2.87
2019-03-06T14:34:19.027Z,4.28
2019-03-06T14:39:28.612Z,4.58
2019-03-06T14:44:32.874Z,3.85
2019-03-06T14:49:37.162Z,4.42
2019-03-06T14:54:41.643Z,5.83
2019-03-06T14:59:45.894Z,3.47
2019-03-06T15:04:50.333Z,4.30
2019-03-06T15:09:54.853Z,3.08
2019-03-06T15:14:59.067Z,2.65
2019-03-06T15:20:03.391Z,3.62
2019-03-06T15:25:12.858Z,4.90
2019-03-06T15:30:18.223Z,3.05
2019-03-06T15:35:22.557Z,2.50
2019-03-06T15:40:28.089Z,2.72
2019-03-06T15:45:33.593Z,2.90
2019-03-06T15:50:37.955Z,4.08
2019-03-06T15:55:42.581Z,3.17
2019-03-06T16:00:48.610Z,5.50
2019-03-06T16:05:52.955Z,2.95
2019-03-06T16:10:57.432Z,2.70
2019-03-06T16:16:01.711Z,3.15
2019-03-06T16:21:06.396Z,4.05
2019-03-06T16:26:10.761Z,6.05
2019-03-06T16:31:16.101Z,3.37
2019-03-06T16:36:20.632Z,3.20
2019-03-06T16:41:24.962Z,3.92
2019-03-06T16:46:29.239Z,3.70
2019-03-06T16:51:33.602Z,4.70
2019-03-06T16:56:37.879Z,2.92
2019-03-06T17:01:42.150Z,4.60
2019-03-06T17:06:46.551Z,6.28
2019-03-06T17:11:50.889Z,4.08
2019-03-06T17:16:55.119Z,3.62
2019-03-06T17:21:59.595Z,4.17
2019-03-06T17:27:04.458Z,4.33
2019-03-06T17:32:08.704Z,5.60
2019-03-06T17:37:13.014Z,4.55
2019-03-06T17:42:17.254Z,4.28
2019-03-06T17:47:21.586Z,6.00
2019-03-06T17:52:25.981Z,5.35
2019-03-06T17:57:30.356Z,4.25
2019-03-06T18:02:34.700Z,4.53
2019-03-06T18:07:38.985Z,3.65
2019-03-06T18:12:43.222Z,3.58
2019-03-06T18:17:47.919Z,5.72
2019-03-06T18:22:52.174Z,3.37
2019-03-06T18:27:56.398Z,4.75
2019-03-06T18:33:00.981Z,3.35
2019-03-06T18:38:05.576Z,3.42
2019-03-06T18:43:09.881Z,4.03
2019-03-06T18:48:14.165Z,4.97
2019-03-06T18:53:18.471Z,8.98
2019-03-06T18:58:22.738Z,4.55
2019-03-06T19:03:27.034Z,3.25
2019-03-06T19:08:31.806Z,4.10
2019-03-06T19:13:36.564Z,5.92
2019-03-06T19:18:40.895Z,5.17
2019-03-06T19:23:45.894Z,5.15
2019-03-06T19:28:50.994Z,4.92
2019-03-06T19:33:55.330Z,2.70
2019-03-06T19:38:59.679Z,3.80
2019-03-06T19:44:04.355Z,4.92
2019-03-06T19:49:08.641Z,3.15
2019-03-06T19:54:13.015Z,4.75
2019-03-06T19:59:17.314Z,6.53
2019-03-06T20:04:21.719Z,5.90
2019-03-06T20:09:28.202Z,5.15
2019-03-06T20:14:32.566Z,3.30
2019-03-06T20:19:36.851Z,4.17
2019-03-06T20:24:41.212Z,4.33
2019-03-06T20:29:45.556Z,4.22
2019-03-06T20:34:50.388Z,4.50
2019-03-06T20:39:54.654Z,3.55
2019-03-06T20:44:58.940Z,4.08
2019-03-06T20:50:03.248Z,6.03
2019-03-06T20:55:08.045Z,3.15
2019-03-06T21:00:14.637Z,2.95
2019-03-06T21:05:19.016Z,4.03
2019-03-06T21:10:23.308Z,3.58
2019-03-06T21:15:27.948Z,2.60
2019-03-06T21:20:32.217Z,2.60
2019-03-06T21:25:36.498Z,3.62
2019-03-06T21:30:41.347Z,5.05
2019-03-06T21:35:45.622Z,3.10
2019-03-06T21:40:50.223Z,3.55
2019-03-06T21:45:54.739Z,3.27
2019-03-06T21:50:59.033Z,2.92
2019-03-06T21:56:03.310Z,4.03
2019-03-06T22:01:07.574Z,2.75
2019-03-06T22:06:11.825Z,2.77
2019-03-06T22:11:16.102Z,2.47
2019-03-06T22:16:20.351Z,3.27
2019-03-06T22:21:24.615Z,2.72
2019-03-06T22:26:28.914Z,2.62
2019-03-06T22:31:33.355Z,1.50
2019-03-06T22:36:37.707Z,2.47
2019-03-06T22:41:42.234Z,3.62
2019-03-06T22:46:46.479Z,3.27
2019-03-06T22:51:50.739Z,4.90
2019-03-06T22:56:54.984Z,4.10
2019-03-06T23:01:59.449Z,2.27
2019-03-06T23:07:03.715Z,3.15
2019-03-06T23:12:08.010Z,4.10
2019-03-06T23:17:12.324Z,4.50
2019-03-06T23:22:16.523Z,4.95
2019-03-06T23:27:21.211Z,4.37
2019-03-06T23:32:25.570Z,4.10
2019-03-06T23:37:29.763Z,4.85
2019-03-06T23:42:34.041Z,2.92
2019-03-06T23:47:38.382Z,3.35
2019-03-06T23:53:04.634Z,4.58
2019-03-06T23:58:08.918Z,4.40
